»·PEaware :: AAL343 KSEA-KBOI

AAL343 :: KSEA-KBOI

FLIGHT INFORMATION

Flight Status: Arrived
Operator:
American Airlines
More flights by this operator :: More flights under this callsign
Pilot: James W. (12414)
Aircraft: BOEING 757-200
(B752)
More flights by this aircraft type
Origin: KSEA Seattle-Tacoma Intl
United States
Destination: KBOI Boise Air Terminal/Gowen
United States
More flights between these airports :: More routes between these airports
Route: SUMMA1 SUMMA J54 BKE DEVLE KYAAN2
File this flight plan on PilotEdge
Remarks:
Altitude:
(Current/Filed)
350ft
Speed:
(Current/Filed)
450kts
Departed: 02-Dec-17 12:06 PM
Arrived: 02-Dec-17 01:08 PM
Distance/Time
Traveled:
346nm/1:01
Distance/Time
To Go:
Arrived

Flight Plot

Page will automatically refresh every two minutes.

Flight plan parsing failed; only flown route is shown


Map Options




Map Legend


Flown Route
Filed Route
Departure Airport
Arrival Airport
Navaid (VOR, NDB)
Fix

Horizontal Profiles

Position Reports

Time Latitude Longitude Heading Altitude Ground
Speed
02-Dec-17 11:41 47.446867 -122.299684 168 445ft 0kts
02-Dec-17 11:42 47.446867 -122.299684 168 445ft 0kts
02-Dec-17 11:43 47.446867 -122.299684 168 445ft 0kts
02-Dec-17 11:44 47.446867 -122.299684 168 444ft 0kts
02-Dec-17 11:45 47.446867 -122.299684 168 444ft 0kts
02-Dec-17 11:46 47.446867 -122.299684 168 444ft 0kts
02-Dec-17 11:47 47.446867 -122.299684 168 444ft 0kts
02-Dec-17 11:48 47.446867 -122.299684 168 444ft 0kts
02-Dec-17 11:49 47.446867 -122.299684 168 444ft 0kts
02-Dec-17 11:50 47.446867 -122.299684 168 444ft 0kts
02-Dec-17 11:51 47.446867 -122.299684 168 444ft 0kts
02-Dec-17 11:52 47.446867 -122.299684 168 444ft 0kts
02-Dec-17 11:53 47.446867 -122.299684 168 444ft 0kts
02-Dec-17 11:54 47.446867 -122.299684 168 444ft 0kts
02-Dec-17 11:55 47.446867 -122.299684 168 444ft 0kts
02-Dec-17 11:56 47.446867 -122.299684 168 444ft 0kts
02-Dec-17 11:57 47.446867 -122.299684 168 444ft 0kts
02-Dec-17 11:58 47.446867 -122.299684 168 444ft 0kts
02-Dec-17 11:59 47.446867 -122.299684 168 444ft 0kts
02-Dec-17 12:00 47.446867 -122.299684 168 444ft 0kts
02-Dec-17 12:01 47.446867 -122.299684 168 444ft 0kts
02-Dec-17 12:02 47.446867 -122.299684 168 444ft 0kts
02-Dec-17 12:03 47.447293 -122.299776 188 444ft 1kts
02-Dec-17 12:04 47.447394 -122.299669 232 444ft 0kts
02-Dec-17 12:05 47.447394 -122.299669 232 444ft 0kts
02-Dec-17 12:06 47.448746 -122.300140 328 445ft 16kts
02-Dec-17 12:07 47.450558 -122.306110 337 445ft 15kts
02-Dec-17 12:08 47.455686 -122.306191 1 445ft 23kts
02-Dec-17 12:09 47.462520 -122.306216 331 444ft 14kts
02-Dec-17 12:10 47.461798 -122.307782 179 445ft 30kts
02-Dec-17 12:11 47.412013 -122.312696 189 1623ft 266kts
02-Dec-17 12:12 47.344557 -122.317026 177 3606ft 247kts
02-Dec-17 12:13 47.275699 -122.311815 174 5702ft 253kts
02-Dec-17 12:14 47.208266 -122.284489 162 7758ft 272kts
02-Dec-17 12:15 47.137607 -122.247786 165 9852ft 280kts
02-Dec-17 12:16 47.062596 -122.210277 165 12800ft 292kts
02-Dec-17 12:17 46.981502 -122.169838 165 14315ft 340kts
02-Dec-17 12:18 46.891687 -122.124899 166 16085ft 360kts
02-Dec-17 12:19 46.797241 -122.077716 167 18710ft 372kts
02-Dec-17 12:20 46.699151 -122.028807 167 21131ft 384kts
02-Dec-17 12:21 46.604948 -121.951377 139 23266ft 423kts
02-Dec-17 12:22 46.543249 -121.801207 126 25096ft 451kts
02-Dec-17 12:23 46.480918 -121.642922 127 26850ft 464kts
02-Dec-17 12:24 46.415780 -121.480283 127 27734ft 495kts
02-Dec-17 12:25 46.348073 -121.311716 128 29267ft 505kts
02-Dec-17 12:26 46.278730 -121.140337 129 31065ft 505kts
02-Dec-17 12:27 46.208413 -120.967678 131 32490ft 513kts
02-Dec-17 12:28 46.136806 -120.793311 131 34121ft 515kts
02-Dec-17 12:29 46.065175 -120.619918 131 35003ft 511kts
02-Dec-17 12:30 45.993376 -120.447120 131 35012ft 512kts
02-Dec-17 12:31 45.922804 -120.278222 132 34995ft 510kts
02-Dec-17 12:32 45.851242 -120.108043 132 35012ft 510kts
02-Dec-17 12:33 45.779286 -119.937962 132 35020ft 511kts
02-Dec-17 12:34 45.706746 -119.767555 132 35027ft 510kts
02-Dec-17 12:35 45.634060 -119.597776 132 35026ft 511kts
02-Dec-17 12:36 45.561523 -119.429343 132 35028ft 511kts
02-Dec-17 12:37 45.491051 -119.266647 133 35013ft 510kts
02-Dec-17 12:38 45.417673 -119.098277 133 35003ft 508kts
02-Dec-17 12:39 45.344505 -118.931569 133 34999ft 515kts
02-Dec-17 12:40 45.269288 -118.761084 132 35002ft 523kts
02-Dec-17 12:41 45.193501 -118.590042 132 35017ft 523kts
02-Dec-17 12:42 45.117396 -118.419517 132 35042ft 522kts
02-Dec-17 12:43 45.043461 -118.254874 133 35029ft 523kts
02-Dec-17 12:44 44.968148 -118.088161 132 35043ft 525kts
02-Dec-17 12:45 44.892788 -117.922186 132 35054ft 524kts
02-Dec-17 12:46 44.806480 -117.782726 156 35068ft 486kts
02-Dec-17 12:47 44.696554 -117.679348 159 34163ft 483kts
02-Dec-17 12:48 44.588511 -117.581717 159 31800ft 435kts
02-Dec-17 12:49 44.497401 -117.500506 161 29302ft 364kts
02-Dec-17 12:50 44.417944 -117.430276 161 26811ft 322kts
02-Dec-17 12:51 44.346295 -117.367108 160 24333ft 296kts
02-Dec-17 12:52 44.280255 -117.309016 160 21889ft 283kts
02-Dec-17 12:53 44.212847 -117.249410 151 19501ft 311kts
02-Dec-17 12:54 44.147280 -117.164309 144 17058ft 333kts
02-Dec-17 12:55 44.086084 -117.083990 143 14484ft 286kts
02-Dec-17 12:56 44.031940 -117.013473 142 11992ft 262kts
02-Dec-17 12:57 43.980744 -116.947035 140 10051ft 237kts
02-Dec-17 12:58 43.936945 -116.880266 141 10086ft 236kts
02-Dec-17 12:59 43.888336 -116.821688 125 10071ft 240kts
02-Dec-17 13:00 43.857288 -116.737849 117 7963ft 241kts
02-Dec-17 13:01 43.832917 -116.662017 128 7849ft 214kts
02-Dec-17 13:02 43.797183 -116.581333 124 5509ft 276kts
02-Dec-17 13:03 43.756403 -116.497268 125 5020ft 242kts
02-Dec-17 13:04 43.721882 -116.427716 126 4997ft 198kts
02-Dec-17 13:05 43.690798 -116.365526 126 5058ft 197kts
02-Dec-17 13:06 43.665204 -116.300043 116 5026ft 199kts
02-Dec-17 13:07 43.641122 -116.230669 115 4993ft 203kts
02-Dec-17 13:08 43.617542 -116.159559 114 4998ft 204kts
02-Dec-17 13:09 43.586060 -116.105967 195 4951ft 164kts
02-Dec-17 13:10 43.543918 -116.122527 235 4665ft 153kts
02-Dec-17 13:11 43.543143 -116.169305 310 4046ft 128kts
02-Dec-17 13:12 43.561160 -116.210467 296 2883ft 101kts
02-Dec-17 13:13 43.566369 -116.224080 8 2883ft 2kts
02-Dec-17 13:14 43.566331 -116.220245 59 2883ft 10kts

Navigation Log

Ident Type
Flight plan parsing failed, navigation log unavailable